createdAt,value
2017-06-05T00:00:54.338Z,0
2017-06-05T00:02:03.299Z,0
2017-06-05T00:03:12.259Z,0
2017-06-05T00:04:21.229Z,0
2017-06-05T00:05:30.179Z,0
2017-06-05T00:06:39.135Z,0
2017-06-05T00:07:48.099Z,0
2017-06-05T00:08:57.115Z,0
2017-06-05T00:10:06.070Z,0
2017-06-05T00:11:15.038Z,0
2017-06-05T00:12:23.995Z,0
2017-06-05T00:13:32.958Z,0
2017-06-05T00:14:41.967Z,0
2017-06-05T00:15:50.922Z,0
2017-06-05T00:17:00.222Z,0
2017-06-05T00:18:09.278Z,0
2017-06-05T00:19:18.239Z,0
2017-06-05T00:20:27.331Z,0
2017-06-05T00:21:36.318Z,0
2017-06-05T00:22:45.283Z,0
2017-06-05T00:23:54.247Z,0
2017-06-05T00:25:03.209Z,0
2017-06-05T00:26:12.310Z,0
2017-06-05T00:27:21.271Z,0
2017-06-05T00:28:30.276Z,0
2017-06-05T00:29:39.235Z,0
2017-06-05T00:30:48.200Z,0
2017-06-05T00:31:57.211Z,0
2017-06-05T00:33:06.197Z,0
2017-06-05T00:34:15.151Z,0
2017-06-05T00:35:24.114Z,0
2017-06-05T00:36:33.072Z,0
2017-06-05T00:37:42.084Z,0
2017-06-05T00:38:51.043Z,0
2017-06-05T00:40:00.096Z,0
2017-06-05T00:41:09.060Z,0
2017-06-05T00:42:18.016Z,0
2017-06-05T00:43:27.061Z,0
2017-06-05T00:44:36.019Z,0
2017-06-05T00:45:45.307Z,0
2017-06-05T00:46:54.269Z,0
2017-06-05T00:48:03.231Z,0
2017-06-05T00:49:12.188Z,0
2017-06-05T00:50:21.156Z,0
2017-06-05T00:51:30.115Z,0
2017-06-05T00:52:39.078Z,0
2017-06-05T00:53:48.043Z,0
2017-06-05T00:54:57.060Z,0
2017-06-05T00:56:06.068Z,0
2017-06-05T00:57:15.030Z,0
2017-06-05T00:58:24.315Z,0
2017-06-05T00:59:33.271Z,0
2017-06-05T01:00:42.233Z,0
2017-06-05T01:01:51.192Z,0
2017-06-05T01:03:00.155Z,0
2017-06-05T01:04:09.109Z,0
2017-06-05T01:05:18.071Z,0
2017-06-05T01:06:27.171Z,0
2017-06-05T01:07:36.149Z,0
2017-06-05T01:08:45.134Z,0
2017-06-05T01:09:54.456Z,0
2017-06-05T01:11:03.414Z,0
2017-06-05T01:12:12.447Z,0
2017-06-05T01:13:21.743Z,0
2017-06-05T01:14:30.707Z,0
2017-06-05T01:15:39.659Z,0
2017-06-05T01:16:48.701Z,0
2017-06-05T01:17:57.661Z,0
2017-06-05T01:19:06.626Z,0
2017-06-05T01:20:15.672Z,0
2017-06-05T01:21:24.633Z,0
2017-06-05T01:22:33.592Z,0
2017-06-05T01:23:42.552Z,0
2017-06-05T01:24:51.854Z,0
2017-06-05T01:26:01.135Z,0
2017-06-05T01:27:10.095Z,0
2017-06-05T01:28:19.060Z,0
2017-06-05T01:29:28.159Z,0
2017-06-05T01:30:37.113Z,0
2017-06-05T01:31:46.069Z,0
2017-06-05T01:32:55.065Z,0
2017-06-05T01:34:04.361Z,0
2017-06-05T01:35:13.699Z,0
2017-06-05T01:36:22.667Z,0
2017-06-05T01:37:31.626Z,0
2017-06-05T01:38:40.589Z,0
2017-06-05T01:39:49.555Z,0
2017-06-05T01:40:58.683Z,0
2017-06-05T01:42:07.646Z,0
2017-06-05T01:43:16.615Z,0
2017-06-05T01:44:25.575Z,0
2017-06-05T01:45:34.546Z,0
2017-06-05T01:46:43.506Z,0
2017-06-05T01:47:52.468Z,0
2017-06-05T01:49:01.433Z,0
2017-06-05T01:50:10.395Z,0
2017-06-05T01:51:19.355Z,0
2017-06-05T01:52:28.373Z,0
2017-06-05T01:53:37.340Z,0
2017-06-05T01:54:46.308Z,0
2017-06-05T01:55:55.361Z,0
2017-06-05T01:57:04.407Z,0
2017-06-05T01:58:13.415Z,0
2017-06-05T01:59:22.462Z,0
2017-06-05T02:00:31.416Z,0
2017-06-05T02:01:40.380Z,0
2017-06-05T02:02:50.171Z,0
2017-06-05T02:03:59.184Z,0
2017-06-05T02:05:08.144Z,0
2017-06-05T02:06:17.099Z,0
2017-06-05T02:07:26.058Z,0
2017-06-05T02:08:35.018Z,0
2017-06-05T02:09:44.060Z,0
2017-06-05T02:10:53.190Z,0
2017-06-05T02:12:02.234Z,0
2017-06-05T02:13:11.196Z,0
2017-06-05T02:14:20.250Z,0
2017-06-05T02:15:29.210Z,0
2017-06-05T02:16:38.176Z,0
2017-06-05T02:17:47.138Z,0
2017-06-05T02:18:56.096Z,0
2017-06-05T02:20:05.054Z,0
2017-06-05T02:21:14.060Z,0
2017-06-05T02:22:23.021Z,0
2017-06-05T02:23:32.012Z,0
2017-06-05T02:24:40.967Z,0
2017-06-05T02:25:50.016Z,0
2017-06-05T02:26:58.971Z,0
2017-06-05T02:28:07.935Z,0
2017-06-05T02:29:16.901Z,0
2017-06-05T02:30:25.864Z,0
2017-06-05T02:31:34.820Z,0
2017-06-05T02:32:43.828Z,0
2017-06-05T02:33:52.792Z,0
2017-06-05T02:35:01.756Z,0
2017-06-05T02:36:10.739Z,0
2017-06-05T02:37:19.696Z,0
2017-06-05T02:38:28.663Z,0
2017-06-05T02:39:37.623Z,0
2017-06-05T02:40:46.595Z,0
2017-06-05T02:41:55.562Z,0
2017-06-05T02:43:04.517Z,0
2017-06-05T02:44:13.807Z,0
2017-06-05T02:45:22.763Z,0
2017-06-05T02:46:31.721Z,0
2017-06-05T02:47:40.679Z,0
2017-06-05T02:48:49.732Z,0
2017-06-05T02:49:58.695Z,0
2017-06-05T02:51:07.651Z,0
2017-06-05T02:52:16.619Z,0
2017-06-05T02:53:25.902Z,0
2017-06-05T02:54:34.866Z,0
2017-06-05T02:55:43.970Z,0
2017-06-05T02:56:52.929Z,0
2017-06-05T02:58:02.074Z,0
2017-06-05T02:59:11.027Z,0
2017-06-05T03:00:19.989Z,0
2017-06-05T03:01:28.993Z,0
2017-06-05T03:02:37.952Z,0
2017-06-05T03:03:46.920Z,0
2017-06-05T03:04:55.884Z,0
2017-06-05T03:06:04.843Z,0
2017-06-05T03:07:14.108Z,0
2017-06-05T03:08:23.074Z,0
2017-06-05T03:09:32.038Z,0
2017-06-05T03:10:41.000Z,5
2017-06-05T03:11:49.957Z,5
2017-06-05T03:12:59.162Z,5
2017-06-05T03:14:08.214Z,5
2017-06-05T03:15:17.165Z,5
2017-06-05T03:16:26.130Z,5
2017-06-05T03:17:35.150Z,5
2017-06-05T03:18:45.035Z,5
2017-06-05T03:19:54.416Z,5
2017-06-05T03:21:03.375Z,0
2017-06-05T03:22:12.344Z,5
2017-06-05T03:23:21.309Z,5
2017-06-05T03:24:30.518Z,0
2017-06-05T03:25:39.476Z,0
2017-06-05T03:26:48.440Z,5
2017-06-05T03:27:57.407Z,5
2017-06-05T03:29:06.370Z,5
2017-06-05T03:30:15.627Z,5
2017-06-05T03:31:24.582Z,5
2017-06-05T03:32:33.546Z,5
2017-06-05T03:33:42.508Z,5
2017-06-05T03:34:51.473Z,5
2017-06-05T03:36:00.684Z,5
2017-06-05T03:37:09.646Z,5
2017-06-05T03:38:18.605Z,5
2017-06-05T03:39:27.581Z,5
2017-06-05T03:40:36.533Z,5
2017-06-05T03:41:45.829Z,5
2017-06-05T03:42:54.791Z,5
2017-06-05T03:44:03.758Z,5
2017-06-05T03:45:12.715Z,5
2017-06-05T03:46:21.669Z,5
2017-06-05T03:47:30.877Z,5
2017-06-05T03:48:40.571Z,5
2017-06-05T03:49:49.866Z,5
2017-06-05T03:50:58.824Z,5
2017-06-05T03:52:07.793Z,5
2017-06-05T03:53:17.004Z,5
2017-06-05T03:54:25.962Z,5
2017-06-05T03:55:34.939Z,5
2017-06-05T03:56:43.898Z,5
2017-06-05T03:57:59.155Z,5
2017-06-05T03:59:08.364Z,5
2017-06-05T04:00:17.317Z,5
2017-06-05T04:01:26.274Z,5
2017-06-05T04:02:35.234Z,5
2017-06-05T04:03:44.202Z,5
2017-06-05T04:04:53.420Z,5
2017-06-05T04:06:02.409Z,5
2017-06-05T04:07:11.457Z,5
2017-06-05T04:08:20.417Z,5
2017-06-05T04:09:29.381Z,5
2017-06-05T04:10:38.910Z,5
2017-06-05T04:11:47.871Z,5
2017-06-05T04:12:56.827Z,5
2017-06-05T04:14:05.786Z,0
2017-06-05T04:15:14.744Z,0
2017-06-05T04:16:23.949Z,0
2017-06-05T04:17:32.908Z,0
2017-06-05T04:18:41.862Z,0
2017-06-05T04:19:50.907Z,0
2017-06-05T04:20:59.869Z,0
2017-06-05T04:22:09.078Z,0
2017-06-05T04:23:18.362Z,5
2017-06-05T04:24:27.339Z,5
2017-06-05T04:25:36.299Z,5
2017-06-05T04:26:45.260Z,5
2017-06-05T04:27:54.474Z,5
2017-06-05T04:29:03.475Z,5
2017-06-05T04:30:12.432Z,5
2017-06-05T04:31:21.389Z,5
2017-06-05T04:32:30.347Z,5
2017-06-05T04:33:39.554Z,5
2017-06-05T04:34:48.544Z,5
2017-06-05T04:35:57.509Z,10
2017-06-05T04:37:06.471Z,10
2017-06-05T04:38:15.441Z,10
2017-06-05T04:39:24.975Z,15
2017-06-05T04:40:33.933Z,15
2017-06-05T04:41:42.894Z,15
2017-06-05T04:42:51.854Z,10
2017-06-05T04:44:00.807Z,10
2017-06-05T04:45:10.023Z,10
2017-06-05T04:46:18.981Z,10
2017-06-05T04:47:27.945Z,15
2017-06-05T04:48:37.227Z,15
2017-06-05T04:49:46.270Z,15
2017-06-05T04:50:55.569Z,20
2017-06-05T04:52:04.614Z,25
2017-06-05T04:53:13.588Z,30
2017-06-05T04:54:22.563Z,25
2017-06-05T04:55:31.605Z,30
2017-06-05T04:56:40.812Z,35
2017-06-05T04:57:49.767Z,35
2017-06-05T04:58:58.729Z,35
2017-06-05T05:00:07.682Z,30
2017-06-05T05:01:16.640Z,30
2017-06-05T05:02:25.945Z,40
2017-06-05T05:03:34.908Z,45
2017-06-05T05:04:43.865Z,50
2017-06-05T05:05:52.825Z,50
2017-06-05T05:07:01.781Z,50
2017-06-05T05:08:11.042Z,45
2017-06-05T05:09:20.001Z,40
2017-06-05T05:10:28.966Z,45
2017-06-05T05:11:37.925Z,40
2017-06-05T05:12:46.883Z,40
2017-06-05T05:13:56.106Z,35
2017-06-05T05:15:05.071Z,40
2017-06-05T05:16:14.027Z,45
2017-06-05T05:17:22.991Z,45
2017-06-05T05:18:32.041Z,45
2017-06-05T05:19:41.337Z,50
2017-06-05T05:20:50.298Z,55
2017-06-05T05:21:59.260Z,55
2017-06-05T05:23:08.224Z,55
2017-06-05T05:24:17.185Z,55
2017-06-05T05:25:26.447Z,50
2017-06-05T05:26:35.405Z,40
2017-06-05T05:27:44.359Z,40
2017-06-05T05:28:53.325Z,40
2017-06-05T05:30:02.294Z,40
2017-06-05T05:31:11.499Z,40
2017-06-05T05:32:20.548Z,40
2017-06-05T05:33:29.523Z,40
2017-06-05T05:34:38.485Z,40
2017-06-05T05:35:47.447Z,45
2017-06-05T05:36:56.654Z,45
2017-06-05T05:38:05.613Z,45
2017-06-05T05:39:14.571Z,45
2017-06-05T05:40:23.527Z,45
2017-06-05T05:41:32.491Z,45
2017-06-05T05:42:41.708Z,45
2017-06-05T05:43:50.670Z,45
2017-06-05T05:44:59.631Z,40
2017-06-05T05:46:08.593Z,45
2017-06-05T05:47:17.553Z,45
2017-06-05T05:48:26.902Z,45
2017-06-05T05:49:35.961Z,45
2017-06-05T05:50:45.029Z,50
2017-06-05T05:51:53.990Z,45
2017-06-05T05:53:02.953Z,50
2017-06-05T05:54:12.902Z,55
2017-06-05T05:55:21.861Z,55
2017-06-05T05:56:30.820Z,60
2017-06-05T05:57:39.781Z,65
2017-06-05T05:58:48.746Z,70
2017-06-05T05:59:58.002Z,65
2017-06-05T06:01:06.964Z,65
2017-06-05T06:02:15.924Z,65
2017-06-05T06:03:25.211Z,70
2017-06-05T06:04:34.489Z,75
2017-06-05T06:05:44.019Z,90
2017-06-05T06:06:52.976Z,90
2017-06-05T06:08:01.933Z,80
2017-06-05T06:09:10.891Z,80
2017-06-05T06:10:19.853Z,75
2017-06-05T06:11:29.063Z,75
2017-06-05T06:12:38.349Z,75
2017-06-05T06:13:47.316Z,85
2017-06-05T06:14:56.363Z,90
2017-06-05T06:16:05.325Z,95
2017-06-05T06:17:14.538Z,80
2017-06-05T06:18:23.499Z,70
2017-06-05T06:19:32.461Z,80
2017-06-05T06:20:41.416Z,90
2017-06-05T06:21:50.372Z,90
2017-06-05T06:22:59.590Z,70
2017-06-05T06:24:08.548Z,65
2017-06-05T06:25:17.842Z,65
2017-06-05T06:26:26.798Z,75
2017-06-05T06:27:35.763Z,65
2017-06-05T06:28:44.973Z,75
2017-06-05T06:29:53.932Z,80
2017-06-05T06:31:02.892Z,90
2017-06-05T06:32:11.934Z,75
2017-06-05T06:33:20.907Z,70
2017-06-05T06:34:30.115Z,70
2017-06-05T06:35:39.078Z,70
2017-06-05T06:36:48.034Z,80
2017-06-05T06:37:57.087Z,85
2017-06-05T06:39:06.051Z,70
2017-06-05T06:40:15.692Z,75
2017-06-05T06:41:24.657Z,80
2017-06-05T06:42:33.611Z,100
2017-06-05T06:43:42.571Z,80
2017-06-05T06:44:51.530Z,75
2017-06-05T06:46:00.738Z,85
2017-06-05T06:47:09.695Z,75
2017-06-05T06:48:18.656Z,95
2017-06-05T06:49:27.712Z,105
2017-06-05T06:50:36.670Z,85
2017-06-05T06:51:45.884Z,85
2017-06-05T06:52:54.852Z,75
2017-06-05T06:54:03.814Z,75
2017-06-05T06:55:13.102Z,85
2017-06-05T06:56:22.064Z,80
2017-06-05T06:57:31.273Z,70
2017-06-05T06:58:40.242Z,85
2017-06-05T06:59:49.289Z,90
2017-06-05T07:00:58.248Z,105
2017-06-05T07:02:07.207Z,75
2017-06-05T07:03:16.425Z,90
2017-06-05T07:04:25.388Z,90
2017-06-05T07:05:34.352Z,80
2017-06-05T07:06:43.307Z,75
2017-06-05T07:07:52.280Z,85
2017-06-05T07:09:01.496Z,85
2017-06-05T07:10:10.456Z,75
2017-06-05T07:11:19.413Z,80
2017-06-05T07:12:28.374Z,75
2017-06-05T07:13:37.347Z,85
2017-06-05T07:14:46.564Z,80
2017-06-05T07:15:55.523Z,65
2017-06-05T07:17:04.568Z,65
2017-06-05T07:18:13.533Z,85
2017-06-05T07:19:22.584Z,100
2017-06-05T07:20:31.802Z,85
2017-06-05T07:21:40.765Z,85
2017-06-05T07:22:49.726Z,75
2017-06-05T07:23:58.686Z,95
2017-06-05T07:25:07.736Z,90
2017-06-05T07:26:16.946Z,70
2017-06-05T07:27:25.904Z,85
2017-06-05T07:28:34.860Z,85
2017-06-05T07:29:43.825Z,85
2017-06-05T07:30:52.787Z,85
2017-06-05T07:32:01.993Z,85
2017-06-05T07:33:10.956Z,85
2017-06-05T07:34:19.923Z,80
2017-06-05T07:35:28.887Z,90
2017-06-05T07:36:37.862Z,105
2017-06-05T07:37:47.389Z,80
2017-06-05T07:38:56.351Z,80
2017-06-05T07:40:05.319Z,100
2017-06-05T07:41:14.286Z,100
2017-06-05T07:42:23.251Z,100
2017-06-05T07:43:32.515Z,95
2017-06-05T07:44:41.488Z,95
2017-06-05T07:45:50.448Z,95
2017-06-05T07:46:59.409Z,90
2017-06-05T07:48:08.374Z,85
2017-06-05T07:49:17.585Z,85
2017-06-05T07:50:26.554Z,80
2017-06-05T07:51:35.510Z,80
2017-06-05T07:52:44.465Z,85
2017-06-05T07:53:53.421Z,85
2017-06-05T07:55:02.631Z,85
2017-06-05T07:56:11.593Z,90
2017-06-05T07:57:20.553Z,90
2017-06-05T07:58:29.513Z,90
2017-06-05T07:59:38.480Z,85
2017-06-05T08:00:47.696Z,85
2017-06-05T08:01:56.659Z,80
2017-06-05T08:03:05.617Z,80
2017-06-05T08:04:14.580Z,80
2017-06-05T08:05:23.540Z,75
2017-06-05T08:06:32.745Z,80
2017-06-05T08:07:41.703Z,80
2017-06-05T08:08:50.663Z,85
2017-06-05T08:09:59.619Z,85
2017-06-05T08:11:08.903Z,90
2017-06-05T08:12:18.117Z,90
2017-06-05T08:13:27.078Z,90
2017-06-05T08:14:36.155Z,90
2017-06-05T08:15:45.113Z,90
2017-06-05T08:16:54.075Z,90
2017-06-05T08:18:03.285Z,90
2017-06-05T08:19:12.247Z,95
2017-06-05T08:20:21.202Z,90
2017-06-05T08:21:30.173Z,90
2017-06-05T08:22:39.133Z,90
2017-06-05T08:23:48.339Z,85
2017-06-05T08:24:57.300Z,90
2017-06-05T08:26:06.261Z,90
2017-06-05T08:27:15.557Z,85
2017-06-05T08:28:24.523Z,90
2017-06-05T08:29:33.731Z,95
2017-06-05T08:30:42.689Z,95
2017-06-05T08:31:51.647Z,100
2017-06-05T08:33:00.609Z,90
2017-06-05T08:34:09.567Z,100
2017-06-05T08:35:18.779Z,105
2017-06-05T08:36:27.747Z,115
2017-06-05T08:37:36.703Z,105
2017-06-05T08:38:45.663Z,105
2017-06-05T08:39:54.622Z,105
2017-06-05T08:41:03.849Z,95
2017-06-05T08:42:12.861Z,95
2017-06-05T08:43:22.153Z,95
2017-06-05T08:44:31.121Z,90
2017-06-05T08:45:40.078Z,95
2017-06-05T08:46:49.366Z,100
2017-06-05T08:47:58.413Z,105
2017-06-05T08:49:07.373Z,105
2017-06-05T08:50:16.332Z,110
2017-06-05T08:51:25.294Z,110
2017-06-05T08:52:34.503Z,105
2017-06-05T08:53:43.468Z,110
2017-06-05T08:54:52.432Z,110
2017-06-05T08:56:01.389Z,110
2017-06-05T08:57:10.351Z,110
2017-06-05T08:58:19.559Z,105
2017-06-05T08:59:28.519Z,100
2017-06-05T09:00:37.475Z,105
2017-06-05T09:01:46.440Z,105
2017-06-05T09:02:55.400Z,110
2017-06-05T09:04:04.692Z,105
2017-06-05T09:05:13.652Z,105
2017-06-05T09:06:22.618Z,105
2017-06-05T09:07:31.578Z,100
2017-06-05T09:08:40.538Z,100
2017-06-05T09:09:49.753Z,100
2017-06-05T09:10:58.711Z,100
2017-06-05T09:12:07.677Z,95
2017-06-05T09:13:16.638Z,95
2017-06-05T09:14:25.597Z,90
2017-06-05T09:15:34.849Z,90
2017-06-05T09:16:43.813Z,90
2017-06-05T09:17:52.780Z,95
2017-06-05T09:19:01.741Z,95
2017-06-05T09:20:10.704Z,100
2017-06-05T09:21:19.915Z,95
2017-06-05T09:22:28.880Z,100
2017-06-05T09:23:37.841Z,100
2017-06-05T09:24:46.799Z,95
2017-06-05T09:25:55.760Z,95
2017-06-05T09:27:04.973Z,95
2017-06-05T09:28:13.933Z,95
2017-06-05T09:29:22.894Z,90
2017-06-05T09:30:31.853Z,95
2017-06-05T09:31:40.813Z,110
2017-06-05T09:32:50.019Z,100
2017-06-05T09:33:59.066Z,95
2017-06-05T09:35:08.028Z,110
2017-06-05T09:36:16.986Z,110
2017-06-05T09:37:25.947Z,100
2017-06-05T09:38:35.160Z,110
2017-06-05T09:39:44.118Z,105
2017-06-05T09:40:53.076Z,115
2017-06-05T09:42:02.067Z,115
2017-06-05T09:43:11.061Z,115
2017-06-05T09:44:20.331Z,90
2017-06-05T09:45:29.289Z,100
2017-06-05T09:46:38.252Z,105
2017-06-05T09:47:47.210Z,80
2017-06-05T09:48:56.170Z,100
2017-06-05T09:50:05.431Z,110
2017-06-05T09:51:14.387Z,110
2017-06-05T09:52:23.352Z,130
2017-06-05T09:53:32.311Z,100
2017-06-05T09:54:41.268Z,120
2017-06-05T09:55:50.801Z,120
2017-06-05T09:56:59.765Z,115
2017-06-05T09:58:08.726Z,115
2017-06-05T09:59:18.020Z,105
2017-06-05T10:00:26.984Z,100
2017-06-05T10:01:36.194Z,90
2017-06-05T10:02:45.151Z,100
2017-06-05T10:03:54.109Z,120
2017-06-05T10:05:03.069Z,125
2017-06-05T10:06:12.032Z,130
2017-06-05T10:07:21.295Z,125
2017-06-05T10:08:30.253Z,110
2017-06-05T10:09:39.219Z,105
2017-06-05T10:10:48.188Z,105
2017-06-05T10:11:57.150Z,105
2017-06-05T10:13:06.366Z,105
2017-06-05T10:14:15.662Z,105
2017-06-05T10:15:24.618Z,100
2017-06-05T10:16:33.578Z,100
2017-06-05T10:17:42.534Z,105
2017-06-05T10:18:51.741Z,100
2017-06-05T10:20:00.704Z,100
2017-06-05T10:21:09.667Z,100
2017-06-05T10:22:18.632Z,100
2017-06-05T10:23:27.677Z,110
2017-06-05T10:24:36.882Z,100
2017-06-05T10:25:45.846Z,105
2017-06-05T10:26:54.897Z,100
2017-06-05T10:28:03.858Z,100
2017-06-05T10:29:12.820Z,95
2017-06-05T10:30:22.033Z,100
2017-06-05T10:31:31.005Z,95
2017-06-05T10:32:39.965Z,95
2017-06-05T10:33:48.929Z,95
2017-06-05T10:34:57.943Z,95
2017-06-05T10:36:07.189Z,100
2017-06-05T10:37:16.151Z,95
2017-06-05T10:38:25.111Z,90
2017-06-05T10:39:34.075Z,95
2017-06-05T10:40:43.039Z,95
2017-06-05T10:41:52.308Z,90
2017-06-05T10:43:01.272Z,90
2017-06-05T10:44:10.234Z,100
2017-06-05T10:45:19.196Z,70
2017-06-05T10:46:28.156Z,95
2017-06-05T10:47:37.375Z,100
2017-06-05T10:48:46.337Z,100
2017-06-05T10:49:55.303Z,95
2017-06-05T10:51:04.263Z,100
2017-06-05T10:52:13.226Z,100
2017-06-05T10:53:22.437Z,95
2017-06-05T10:54:31.402Z,95
2017-06-05T10:55:40.365Z,95
2017-06-05T10:56:49.329Z,95
2017-06-05T10:57:58.288Z,65
2017-06-05T10:59:07.498Z,65
2017-06-05T11:00:16.458Z,100
2017-06-05T11:01:25.420Z,100
2017-06-05T11:02:34.380Z,100
2017-06-05T11:03:43.336Z,105
2017-06-05T11:04:52.550Z,100
2017-06-05T11:06:01.512Z,100
2017-06-05T11:07:10.474Z,105
2017-06-05T11:08:19.435Z,105
2017-06-05T11:09:28.393Z,100
2017-06-05T11:10:37.605Z,95
2017-06-05T11:11:46.572Z,95
2017-06-05T11:12:55.534Z,100
2017-06-05T11:14:04.496Z,100
2017-06-05T11:15:13.486Z,80
2017-06-05T11:16:22.702Z,100
2017-06-05T11:17:31.663Z,100
2017-06-05T11:18:40.628Z,105
2017-06-05T11:19:49.589Z,105
2017-06-05T11:20:58.547Z,110
2017-06-05T11:22:07.756Z,105
2017-06-05T11:23:16.715Z,110
2017-06-05T11:24:25.675Z,115
2017-06-05T11:25:34.634Z,105
2017-06-05T11:26:43.597Z,100
2017-06-05T11:27:53.143Z,100
2017-06-05T11:29:02.105Z,100
2017-06-05T11:30:11.084Z,95
2017-06-05T11:31:20.047Z,100
2017-06-05T11:32:29.012Z,95
2017-06-05T11:33:38.221Z,95
2017-06-05T11:34:47.188Z,95
2017-06-05T11:35:56.151Z,95
2017-06-05T11:37:05.109Z,90
2017-06-05T11:38:14.068Z,90
2017-06-05T11:39:23.279Z,90
2017-06-05T11:40:32.240Z,90
2017-06-05T11:41:41.210Z,90
2017-06-05T11:42:50.180Z,95
2017-06-05T11:43:59.139Z,95
2017-06-05T11:45:08.361Z,90
2017-06-05T11:46:17.318Z,90
2017-06-05T11:47:26.281Z,90
2017-06-05T11:48:35.247Z,90
2017-06-05T11:49:44.211Z,95
2017-06-05T11:50:53.421Z,95
2017-06-05T11:52:02.382Z,95
2017-06-05T11:53:11.338Z,95
2017-06-05T11:54:20.295Z,100
2017-06-05T11:55:29.577Z,95
2017-06-05T11:56:38.838Z,90
2017-06-05T11:57:47.889Z,90
2017-06-05T11:58:56.851Z,100
2017-06-05T12:00:05.815Z,100
2017-06-05T12:01:14.784Z,100
2017-06-05T12:02:24.417Z,100
2017-06-05T12:03:33.379Z,90
2017-06-05T12:04:42.349Z,100
2017-06-05T12:05:51.316Z,95
2017-06-05T12:07:00.277Z,85
2017-06-05T12:08:09.636Z,90
2017-06-05T12:09:18.597Z,90
2017-06-05T12:10:27.559Z,80
2017-06-05T12:11:36.525Z,70
2017-06-05T12:12:45.508Z,85
2017-06-05T12:13:54.717Z,85
2017-06-05T12:15:03.676Z,90
2017-06-05T12:16:12.636Z,100
2017-06-05T12:17:21.600Z,100
2017-06-05T12:18:30.560Z,95
2017-06-05T12:19:39.823Z,100
2017-06-05T12:20:48.786Z,85
2017-06-05T12:21:57.828Z,80
2017-06-05T12:23:06.799Z,75
2017-06-05T12:24:15.757Z,75
2017-06-05T12:25:24.969Z,100
2017-06-05T12:26:34.023Z,75
2017-06-05T12:27:43.311Z,65
2017-06-05T12:28:52.275Z,75
2017-06-05T12:30:01.268Z,85
2017-06-05T12:31:10.529Z,70
2017-06-05T12:32:19.876Z,80
2017-06-05T12:33:28.933Z,90
2017-06-05T12:34:37.895Z,95
2017-06-05T12:35:46.949Z,90
2017-06-05T12:36:56.167Z,85
2017-06-05T12:38:05.124Z,75
2017-06-05T12:39:14.180Z,80
2017-06-05T12:40:23.140Z,65
2017-06-05T12:41:32.105Z,50
2017-06-05T12:42:41.321Z,50
2017-06-05T12:43:50.288Z,55
2017-06-05T12:44:59.252Z,55
2017-06-05T12:46:08.213Z,60
2017-06-05T12:47:17.181Z,60
2017-06-05T12:48:26.440Z,70
2017-06-05T12:49:35.402Z,60
2017-06-05T12:50:44.367Z,60
2017-06-05T12:51:53.340Z,55
2017-06-05T12:53:02.301Z,50
2017-06-05T12:54:11.514Z,50
2017-06-05T12:55:20.475Z,50
2017-06-05T12:56:29.435Z,50
2017-06-05T12:57:38.399Z,50
2017-06-05T12:58:47.356Z,50
2017-06-05T12:59:56.567Z,55
2017-06-05T13:01:05.524Z,60
2017-06-05T13:02:14.490Z,65
2017-06-05T13:03:23.451Z,70
2017-06-05T13:04:32.496Z,70
2017-06-05T13:05:41.709Z,65
2017-06-05T13:06:50.670Z,65
2017-06-05T13:07:59.641Z,65
2017-06-05T13:09:08.601Z,60
2017-06-05T13:10:17.659Z,60
2017-06-05T13:11:26.995Z,65
2017-06-05T13:12:35.952Z,60
2017-06-05T13:13:44.924Z,55
2017-06-05T13:14:53.891Z,50
2017-06-05T13:16:02.880Z,50
2017-06-05T13:17:12.145Z,50
2017-06-05T13:18:21.105Z,55
2017-06-05T13:19:30.085Z,55
2017-06-05T13:20:39.043Z,50
2017-06-05T13:21:48.004Z,60
2017-06-05T13:22:57.264Z,85
2017-06-05T13:24:06.228Z,100
2017-06-05T13:25:15.530Z,90
2017-06-05T13:26:24.497Z,55
2017-06-05T13:27:33.465Z,50
2017-06-05T13:28:42.684Z,50
2017-06-05T13:29:51.653Z,45
2017-06-05T13:31:00.614Z,55
2017-06-05T13:32:09.583Z,55
2017-06-05T13:33:18.545Z,65
2017-06-05T13:34:27.755Z,70
2017-06-05T13:35:36.713Z,60
2017-06-05T13:36:45.678Z,45
2017-06-05T13:37:54.737Z,45
2017-06-05T13:39:03.791Z,60
2017-06-05T13:40:13.092Z,65
2017-06-05T13:41:22.397Z,100
2017-06-05T13:42:31.448Z,90
2017-06-05T13:43:40.735Z,70
2017-06-05T13:44:49.698Z,90
2017-06-05T13:45:58.914Z,85
2017-06-05T13:47:07.874Z,75
2017-06-05T13:48:16.842Z,100
2017-06-05T13:49:26.122Z,95
2017-06-05T13:50:35.107Z,85
2017-06-05T13:51:44.316Z,90
2017-06-05T13:52:53.283Z,95
2017-06-05T13:54:02.245Z,100
2017-06-05T13:55:11.209Z,100
2017-06-05T13:56:20.171Z,100
2017-06-05T13:57:29.381Z,100
2017-06-05T13:58:38.343Z,90
2017-06-05T13:59:47.304Z,70
2017-06-05T14:00:56.271Z,70
2017-06-05T14:02:05.234Z,80
2017-06-05T14:03:14.450Z,80
2017-06-05T14:04:23.532Z,85
2017-06-05T14:05:32.498Z,90
2017-06-05T14:06:41.555Z,80
2017-06-05T14:07:50.516Z,90
2017-06-05T14:08:59.733Z,95
2017-06-05T14:10:08.697Z,75
2017-06-05T14:11:17.656Z,55
2017-06-05T14:12:26.616Z,50
2017-06-05T14:13:35.576Z,65
2017-06-05T14:14:44.841Z,45
2017-06-05T14:15:53.802Z,45
2017-06-05T14:17:02.762Z,40
2017-06-05T14:18:11.725Z,45
2017-06-05T14:19:20.682Z,45
2017-06-05T14:20:29.946Z,45
2017-06-05T14:21:38.907Z,45
2017-06-05T14:22:47.869Z,70
2017-06-05T14:23:56.837Z,40
2017-06-05T14:25:05.891Z,45
2017-06-05T14:26:15.152Z,60
2017-06-05T14:27:24.120Z,45
2017-06-05T14:28:33.081Z,45
2017-06-05T14:29:42.041Z,45
2017-06-05T14:30:51.001Z,40
2017-06-05T14:32:00.263Z,40
2017-06-05T14:33:09.231Z,40
2017-06-05T14:34:18.220Z,35
2017-06-05T14:35:27.185Z,40
2017-06-05T14:36:36.148Z,40
2017-06-05T14:37:45.364Z,40
2017-06-05T14:38:54.322Z,35
2017-06-05T14:40:03.282Z,40
2017-06-05T14:41:12.245Z,40
2017-06-05T14:42:21.210Z,40
2017-06-05T14:43:30.422Z,45
2017-06-05T14:44:39.385Z,50
2017-06-05T14:45:48.344Z,50
2017-06-05T14:46:57.313Z,50
2017-06-05T14:48:06.272Z,45
2017-06-05T14:49:15.482Z,40
2017-06-05T14:50:24.444Z,40
2017-06-05T14:51:33.403Z,40
2017-06-05T14:52:42.360Z,35
2017-06-05T14:53:51.326Z,35
2017-06-05T14:55:00.534Z,35
2017-06-05T14:56:09.538Z,35
2017-06-05T14:57:18.500Z,30
2017-06-05T14:58:27.464Z,30
2017-06-05T14:59:36.426Z,30
2017-06-05T15:00:45.640Z,30
2017-06-05T15:01:54.600Z,30
2017-06-05T15:03:03.562Z,30
2017-06-05T15:04:12.524Z,25
2017-06-05T15:05:21.485Z,25
2017-06-05T15:06:30.694Z,30
2017-06-05T15:07:39.653Z,30
2017-06-05T15:08:48.609Z,30
2017-06-05T15:09:57.572Z,30
2017-06-05T15:11:06.532Z,30
2017-06-05T15:12:15.748Z,35
2017-06-05T15:13:24.708Z,35
2017-06-05T15:14:33.674Z,35
2017-06-05T15:15:42.634Z,40
2017-06-05T15:16:51.596Z,45
2017-06-05T15:18:00.805Z,45
2017-06-05T15:19:09.778Z,45
2017-06-05T15:20:18.744Z,45
2017-06-05T15:21:27.714Z,45
2017-06-05T15:22:36.673Z,40
2017-06-05T15:23:45.886Z,35
2017-06-05T15:24:54.850Z,35
2017-06-05T15:26:03.814Z,40
2017-06-05T15:27:12.784Z,40
2017-06-05T15:28:22.084Z,40
2017-06-05T15:29:31.381Z,40
2017-06-05T15:30:40.347Z,40
2017-06-05T15:31:49.307Z,35
2017-06-05T15:32:58.268Z,30
2017-06-05T15:34:07.248Z,25
2017-06-05T15:35:16.469Z,20
2017-06-05T15:36:25.610Z,20
2017-06-05T15:37:34.569Z,15
2017-06-05T15:38:43.530Z,15
2017-06-05T15:39:52.496Z,10
2017-06-05T15:41:01.709Z,10
2017-06-05T15:42:10.670Z,10
2017-06-05T15:43:19.642Z,10
2017-06-05T15:44:28.604Z,5
2017-06-05T15:45:37.568Z,5
2017-06-05T15:46:46.781Z,5
2017-06-05T15:47:55.736Z,5
2017-06-05T15:49:04.701Z,5
2017-06-05T15:50:13.664Z,5
2017-06-05T15:51:22.621Z,5
2017-06-05T15:52:31.831Z,5
2017-06-05T15:53:40.791Z,5
2017-06-05T15:54:49.747Z,5
2017-06-05T15:55:58.708Z,5
2017-06-05T15:57:07.668Z,5
2017-06-05T15:58:16.884Z,10
2017-06-05T15:59:25.844Z,5
2017-06-05T16:00:34.805Z,10
2017-06-05T16:01:43.767Z,10
2017-06-05T16:02:52.729Z,10
2017-06-05T16:04:01.938Z,10
2017-06-05T16:05:10.905Z,15
2017-06-05T16:06:19.865Z,15
2017-06-05T16:07:28.825Z,15
2017-06-05T16:08:37.787Z,15
2017-06-05T16:09:47.054Z,10
2017-06-05T16:10:56.014Z,5
2017-06-05T16:12:05.065Z,5
2017-06-05T16:13:14.026Z,5
2017-06-05T16:14:22.984Z,5
2017-06-05T16:15:32.193Z,5
2017-06-05T16:16:41.153Z,5
2017-06-05T16:17:50.116Z,5
2017-06-05T16:18:59.076Z,5
2017-06-05T16:20:08.129Z,5
2017-06-05T16:21:17.783Z,5
2017-06-05T16:22:26.743Z,0
2017-06-05T16:23:35.734Z,0
2017-06-05T16:24:44.697Z,0
2017-06-05T16:25:53.656Z,0
2017-06-05T16:27:02.865Z,0
2017-06-05T16:28:11.824Z,0
2017-06-05T16:29:20.782Z,0
2017-06-05T16:30:29.746Z,0